sensor_id;sensor_type;location;lat;lon;timestamp;P1;durP1;ratioP1;P2;durP2;ratioP2
10957;SDS011;5531;42.570;23.676;2023-06-14T00:00:22;37.90;;;23.73;;
10957;SDS011;5531;42.570;23.676;2023-06-14T00:02:51;34.78;;;24.30;;
10957;SDS011;5531;42.570;23.676;2023-06-14T00:05:25;80.25;;;27.33;;
10957;SDS011;5531;42.570;23.676;2023-06-14T00:07:55;34.50;;;23.77;;
10957;SDS011;5531;42.570;23.676;2023-06-14T00:10:25;72.88;;;26.30;;
10957;SDS011;5531;42.570;23.676;2023-06-14T00:12:56;55.83;;;25.80;;
10957;SDS011;5531;42.570;23.676;2023-06-14T00:15:25;91.38;;;24.08;;
10957;SDS011;5531;42.570;23.676;2023-06-14T00:17:56;521.88;;;35.30;;
10957;SDS011;5531;42.570;23.676;2023-06-14T00:20:28;904.88;;;44.85;;
10957;SDS011;5531;42.570;23.676;2023-06-14T00:34:14;475.25;;;34.30;;
10957;SDS011;5531;42.570;23.676;2023-06-14T00:36:43;309.70;;;29.65;;
10957;SDS011;5531;42.570;23.676;2023-06-14T00:39:12;64.45;;;28.70;;
10957;SDS011;5531;42.570;23.676;2023-06-14T00:41:41;377.02;;;32.90;;
10957;SDS011;5531;42.570;23.676;2023-06-14T00:44:10;212.88;;;27.58;;
10957;SDS011;5531;42.570;23.676;2023-06-14T00:46:41;270.52;;;29.80;;
10957;SDS011;5531;42.570;23.676;2023-06-14T00:49:10;372.27;;;30.95;;
10957;SDS011;5531;42.570;23.676;2023-06-14T00:51:43;337.13;;;30.73;;
10957;SDS011;5531;42.570;23.676;2023-06-14T00:54:12;589.78;;;34.40;;
10957;SDS011;5531;42.570;23.676;2023-06-14T00:56:41;388.00;;;32.35;;
10957;SDS011;5531;42.570;23.676;2023-06-14T00:59:12;307.33;;;31.42;;
10957;SDS011;5531;42.570;23.676;2023-06-14T01:01:41;389.70;;;29.85;;
10957;SDS011;5531;42.570;23.676;2023-06-14T01:04:10;396.45;;;30.77;;
10957;SDS011;5531;42.570;23.676;2023-06-14T01:06:45;258.25;;;28.80;;
10957;SDS011;5531;42.570;23.676;2023-06-14T01:09:30;284.50;;;28.75;;
10957;SDS011;5531;42.570;23.676;2023-06-14T01:12:07;342.40;;;30.08;;
10957;SDS011;5531;42.570;23.676;2023-06-14T01:14:43;388.48;;;33.17;;
10957;SDS011;5531;42.570;23.676;2023-06-14T01:17:14;536.65;;;35.97;;
10957;SDS011;5531;42.570;23.676;2023-06-14T01:19:43;369.58;;;31.38;;
10957;SDS011;5531;42.570;23.676;2023-06-14T01:22:16;479.55;;;32.28;;
10957;SDS011;5531;42.570;23.676;2023-06-14T01:24:48;433.02;;;31.38;;
10957;SDS011;5531;42.570;23.676;2023-06-14T01:27:20;140.45;;;28.98;;
10957;SDS011;5531;42.570;23.676;2023-06-14T01:29:54;230.15;;;27.90;;
10957;SDS011;5531;42.570;23.676;2023-06-14T01:32:25;67.63;;;22.15;;
10957;SDS011;5531;42.570;23.676;2023-06-14T01:34:57;61.05;;;24.98;;
10957;SDS011;5531;42.570;23.676;2023-06-14T01:37:26;395.52;;;32.85;;
10957;SDS011;5531;42.570;23.676;2023-06-14T01:39:58;140.88;;;27.42;;
10957;SDS011;5531;42.570;23.676;2023-06-14T01:42:27;72.03;;;27.90;;
10957;SDS011;5531;42.570;23.676;2023-06-14T01:44:58;355.92;;;31.20;;
10957;SDS011;5531;42.570;23.676;2023-06-14T01:47:27;206.93;;;28.33;;
10957;SDS011;5531;42.570;23.676;2023-06-14T01:49:56;236.05;;;28.30;;
10957;SDS011;5531;42.570;23.676;2023-06-14T01:52:25;426.63;;;32.20;;
10957;SDS011;5531;42.570;23.676;2023-06-14T01:54:54;223.13;;;28.00;;
10957;SDS011;5531;42.570;23.676;2023-06-14T01:57:25;246.10;;;27.60;;
10957;SDS011;5531;42.570;23.676;2023-06-14T01:59:54;266.75;;;28.25;;
10957;SDS011;5531;42.570;23.676;2023-06-14T02:02:23;323.08;;;29.50;;
10957;SDS011;5531;42.570;23.676;2023-06-14T02:04:52;187.68;;;26.17;;
10957;SDS011;5531;42.570;23.676;2023-06-14T02:07:22;167.95;;;26.25;;
10957;SDS011;5531;42.570;23.676;2023-06-14T02:09:52;147.95;;;27.92;;
10957;SDS011;5531;42.570;23.676;2023-06-14T02:12:21;283.95;;;28.55;;
10957;SDS011;5531;42.570;23.676;2023-06-14T02:14:52;282.90;;;26.42;;
10957;SDS011;5531;42.570;23.676;2023-06-14T02:17:23;280.15;;;30.05;;
10957;SDS011;5531;42.570;23.676;2023-06-14T02:19:53;62.83;;;25.55;;
10957;SDS011;5531;42.570;23.676;2023-06-14T02:22:22;301.50;;;32.08;;
10957;SDS011;5531;42.570;23.676;2023-06-14T02:24:51;109.80;;;28.02;;
10957;SDS011;5531;42.570;23.676;2023-06-14T02:27:20;150.98;;;29.17;;
10957;SDS011;5531;42.570;23.676;2023-06-14T02:29:49;67.15;;;25.98;;
10957;SDS011;5531;42.570;23.676;2023-06-14T02:32:21;85.88;;;28.08;;
10957;SDS011;5531;42.570;23.676;2023-06-14T02:34:51;112.97;;;28.02;;
10957;SDS011;5531;42.570;23.676;2023-06-14T02:37:21;262.38;;;31.27;;
10957;SDS011;5531;42.570;23.676;2023-06-14T02:39:50;164.70;;;28.08;;
10957;SDS011;5531;42.570;23.676;2023-06-14T02:42:19;91.43;;;26.70;;
10957;SDS011;5531;42.570;23.676;2023-06-14T02:44:47;79.95;;;26.25;;
10957;SDS011;5531;42.570;23.676;2023-06-14T02:47:17;55.42;;;26.38;;
10957;SDS011;5531;42.570;23.676;2023-06-14T02:49:49;90.05;;;25.73;;
10957;SDS011;5531;42.570;23.676;2023-06-14T02:52:18;263.95;;;28.55;;
10957;SDS011;5531;42.570;23.676;2023-06-14T02:54:47;290.33;;;28.45;;
10957;SDS011;5531;42.570;23.676;2023-06-14T02:57:16;61.10;;;23.55;;
10957;SDS011;5531;42.570;23.676;2023-06-14T02:59:45;62.45;;;23.85;;
10957;SDS011;5531;42.570;23.676;2023-06-14T03:02:14;164.55;;;27.73;;
10957;SDS011;5531;42.570;23.676;2023-06-14T03:04:43;59.80;;;24.33;;
10957;SDS011;5531;42.570;23.676;2023-06-14T03:07:15;54.80;;;24.10;;
10957;SDS011;5531;42.570;23.676;2023-06-14T03:09:45;100.13;;;25.65;;
10957;SDS011;5531;42.570;23.676;2023-06-14T03:12:15;83.03;;;23.90;;
10957;SDS011;5531;42.570;23.676;2023-06-14T03:14:44;77.63;;;23.23;;
10957;SDS011;5531;42.570;23.676;2023-06-14T03:17:13;113.13;;;25.05;;
10957;SDS011;5531;42.570;23.676;2023-06-14T03:19:42;404.65;;;32.40;;
10957;SDS011;5531;42.570;23.676;2023-06-14T03:22:11;358.45;;;31.70;;
10957;SDS011;5531;42.570;23.676;2023-06-14T03:24:43;211.20;;;29.85;;
10957;SDS011;5531;42.570;23.676;2023-06-14T03:27:12;258.90;;;30.30;;
10957;SDS011;5531;42.570;23.676;2023-06-14T03:29:41;160.52;;;29.95;;
10957;SDS011;5531;42.570;23.676;2023-06-14T03:32:11;170.75;;;31.27;;
10957;SDS011;5531;42.570;23.676;2023-06-14T03:34:40;349.02;;;34.13;;
10957;SDS011;5531;42.570;23.676;2023-06-14T03:37:10;148.77;;;29.58;;
10957;SDS011;5531;42.570;23.676;2023-06-14T03:39:42;162.73;;;32.42;;
10957;SDS011;5531;42.570;23.676;2023-06-14T03:42:13;468.10;;;36.60;;
10957;SDS011;5531;42.570;23.676;2023-06-14T03:44:42;202.25;;;32.85;;
10957;SDS011;5531;42.570;23.676;2023-06-14T03:47:11;83.60;;;30.05;;
10957;SDS011;5531;42.570;23.676;2023-06-14T03:49:40;247.60;;;33.25;;
10957;SDS011;5531;42.570;23.676;2023-06-14T03:52:09;62.13;;;30.48;;
10957;SDS011;5531;42.570;23.676;2023-06-14T03:54:42;59.92;;;29.58;;
10957;SDS011;5531;42.570;23.676;2023-06-14T03:57:11;55.60;;;28.45;;
10957;SDS011;5531;42.570;23.676;2023-06-14T03:59:40;242.35;;;31.92;;
10957;SDS011;5531;42.570;23.676;2023-06-14T04:02:09;352.17;;;32.42;;
10957;SDS011;5531;42.570;23.676;2023-06-14T04:04:40;312.83;;;31.95;;
10957;SDS011;5531;42.570;23.676;2023-06-14T04:07:10;63.92;;;28.58;;
10957;SDS011;5531;42.570;23.676;2023-06-14T04:09:42;91.78;;;29.35;;
10957;SDS011;5531;42.570;23.676;2023-06-14T04:12:11;83.07;;;30.17;;
10957;SDS011;5531;42.570;23.676;2023-06-14T04:14:40;121.60;;;30.48;;
10957;SDS011;5531;42.570;23.676;2023-06-14T04:17:09;60.50;;;27.38;;
10957;SDS011;5531;42.570;23.676;2023-06-14T04:19:38;102.40;;;29.88;;
10957;SDS011;5531;42.570;23.676;2023-06-14T04:22:07;51.22;;;26.60;;
10957;SDS011;5531;42.570;23.676;2023-06-14T04:24:36;44.13;;;25.67;;
10957;SDS011;5531;42.570;23.676;2023-06-14T04:27:10;41.60;;;25.58;;
10957;SDS011;5531;42.570;23.676;2023-06-14T04:29:39;44.88;;;26.67;;
10957;SDS011;5531;42.570;23.676;2023-06-14T04:32:09;41.75;;;25.60;;
10957;SDS011;5531;42.570;23.676;2023-06-14T04:34:38;46.97;;;27.23;;
10957;SDS011;5531;42.570;23.676;2023-06-14T04:37:08;37.40;;;23.27;;
10957;SDS011;5531;42.570;23.676;2023-06-14T04:39:37;38.03;;;23.85;;
10957;SDS011;5531;42.570;23.676;2023-06-14T04:42:10;35.20;;;22.73;;
10957;SDS011;5531;42.570;23.676;2023-06-14T04:44:40;31.00;;;21.25;;
10957;SDS011;5531;42.570;23.676;2023-06-14T04:47:10;25.85;;;19.25;;
10957;SDS011;5531;42.570;23.676;2023-06-14T04:49:39;22.60;;;17.83;;
10957;SDS011;5531;42.570;23.676;2023-06-14T04:52:08;21.85;;;16.38;;
10957;SDS011;5531;42.570;23.676;2023-06-14T04:54:38;19.30;;;15.63;;
10957;SDS011;5531;42.570;23.676;2023-06-14T04:57:10;20.40;;;16.73;;
10957;SDS011;5531;42.570;23.676;2023-06-14T04:59:42;20.75;;;17.13;;
10957;SDS011;5531;42.570;23.676;2023-06-14T05:02:11;19.02;;;16.15;;
10957;SDS011;5531;42.570;23.676;2023-06-14T05:04:40;19.38;;;15.98;;
10957;SDS011;5531;42.570;23.676;2023-06-14T05:07:09;18.17;;;15.02;;
10957;SDS011;5531;42.570;23.676;2023-06-14T05:09:39;18.13;;;14.93;;
10957;SDS011;5531;42.570;23.676;2023-06-14T05:12:11;19.05;;;14.60;;
10957;SDS011;5531;42.570;23.676;2023-06-14T05:14:43;16.73;;;14.10;;
10957;SDS011;5531;42.570;23.676;2023-06-14T05:17:13;13.73;;;12.48;;
10957;SDS011;5531;42.570;23.676;2023-06-14T05:19:42;14.55;;;12.98;;
10957;SDS011;5531;42.570;23.676;2023-06-14T05:22:11;14.13;;;12.82;;
10957;SDS011;5531;42.570;23.676;2023-06-14T05:24:40;14.77;;;13.20;;
10957;SDS011;5531;42.570;23.676;2023-06-14T05:27:12;14.10;;;12.73;;
10957;SDS011;5531;42.570;23.676;2023-06-14T05:29:41;15.57;;;13.88;;
10957;SDS011;5531;42.570;23.676;2023-06-14T05:32:10;13.68;;;12.27;;
10957;SDS011;5531;42.570;23.676;2023-06-14T05:34:39;14.32;;;12.93;;
10957;SDS011;5531;42.570;23.676;2023-06-14T05:37:08;15.35;;;13.85;;
10957;SDS011;5531;42.570;23.676;2023-06-14T05:39:38;14.73;;;13.32;;
10957;SDS011;5531;42.570;23.676;2023-06-14T05:42:07;14.77;;;13.35;;
10957;SDS011;5531;42.570;23.676;2023-06-14T05:44:39;15.07;;;13.48;;
10957;SDS011;5531;42.570;23.676;2023-06-14T05:47:08;14.25;;;12.75;;
10957;SDS011;5531;42.570;23.676;2023-06-14T05:49:37;14.93;;;13.43;;
10957;SDS011;5531;42.570;23.676;2023-06-14T05:52:07;14.88;;;13.48;;
10957;SDS011;5531;42.570;23.676;2023-06-14T05:54:38;13.73;;;12.43;;
10957;SDS011;5531;42.570;23.676;2023-06-14T05:57:07;12.77;;;11.52;;
10957;SDS011;5531;42.570;23.676;2023-06-14T05:59:39;12.65;;;11.30;;
10957;SDS011;5531;42.570;23.676;2023-06-14T06:02:08;12.25;;;11.05;;
10957;SDS011;5531;42.570;23.676;2023-06-14T06:04:37;12.70;;;11.10;;
10957;SDS011;5531;42.570;23.676;2023-06-14T06:07:06;13.45;;;9.85;;
10957;SDS011;5531;42.570;23.676;2023-06-14T06:09:35;11.93;;;10.82;;
10957;SDS011;5531;42.570;23.676;2023-06-14T06:12:06;10.23;;;9.23;;
10957;SDS011;5531;42.570;23.676;2023-06-14T06:14:35;9.10;;;8.20;;
10957;SDS011;5531;42.570;23.676;2023-06-14T06:17:07;11.00;;;8.82;;
10957;SDS011;5531;42.570;23.676;2023-06-14T06:19:36;9.05;;;8.18;;
10957;SDS011;5531;42.570;23.676;2023-06-14T06:22:05;9.25;;;8.38;;
10957;SDS011;5531;42.570;23.676;2023-06-14T06:24:34;8.68;;;7.97;;
10957;SDS011;5531;42.570;23.676;2023-06-14T06:27:04;8.30;;;7.60;;
10957;SDS011;5531;42.570;23.676;2023-06-14T06:29:33;8.38;;;7.57;;
10957;SDS011;5531;42.570;23.676;2023-06-14T06:32:03;8.20;;;7.50;;
10957;SDS011;5531;42.570;23.676;2023-06-14T06:34:35;8.25;;;7.50;;
10957;SDS011;5531;42.570;23.676;2023-06-14T06:37:05;7.93;;;7.13;;
10957;SDS011;5531;42.570;23.676;2023-06-14T06:39:34;9.10;;;8.20;;
10957;SDS011;5531;42.570;23.676;2023-06-14T06:42:04;8.15;;;7.35;;
10957;SDS011;5531;42.570;23.676;2023-06-14T06:44:33;7.78;;;6.97;;
10957;SDS011;5531;42.570;23.676;2023-06-14T06:47:03;7.88;;;7.15;;
10957;SDS011;5531;42.570;23.676;2023-06-14T06:49:32;8.77;;;6.55;;
10957;SDS011;5531;42.570;23.676;2023-06-14T06:52:04;7.88;;;7.07;;
10957;SDS011;5531;42.570;23.676;2023-06-14T06:54:34;8.45;;;7.68;;
10957;SDS011;5531;42.570;23.676;2023-06-14T06:57:04;7.30;;;6.60;;
10957;SDS011;5531;42.570;23.676;2023-06-14T06:59:33;7.53;;;6.80;;
10957;SDS011;5531;42.570;23.676;2023-06-14T07:02:02;7.25;;;6.60;;
10957;SDS011;5531;42.570;23.676;2023-06-14T07:04:32;6.82;;;6.28;;
10957;SDS011;5531;42.570;23.676;2023-06-14T07:07:03;7.70;;;6.72;;
10957;SDS011;5531;42.570;23.676;2023-06-14T07:09:34;7.72;;;7.03;;
10957;SDS011;5531;42.570;23.676;2023-06-14T07:12:04;12.60;;;11.35;;
10957;SDS011;5531;42.570;23.676;2023-06-14T07:14:33;12.73;;;11.52;;
10957;SDS011;5531;42.570;23.676;2023-06-14T07:17:03;12.45;;;10.95;;
10957;SDS011;5531;42.570;23.676;2023-06-14T07:19:32;11.82;;;10.32;;
10957;SDS011;5531;42.570;23.676;2023-06-14T07:22:04;11.40;;;10.05;;
10957;SDS011;5531;42.570;23.676;2023-06-14T07:24:33;10.50;;;9.50;;
10957;SDS011;5531;42.570;23.676;2023-06-14T07:27:03;11.57;;;10.45;;
10957;SDS011;5531;42.570;23.676;2023-06-14T07:29:33;10.63;;;9.63;;
10957;SDS011;5531;42.570;23.676;2023-06-14T07:32:02;12.55;;;11.40;;
10957;SDS011;5531;42.570;23.676;2023-06-14T07:34:32;11.45;;;10.35;;
10957;SDS011;5531;42.570;23.676;2023-06-14T07:37:01;12.38;;;11.13;;
10957;SDS011;5531;42.570;23.676;2023-06-14T07:39:32;9.88;;;8.93;;
10957;SDS011;5531;42.570;23.676;2023-06-14T07:42:02;11.55;;;10.48;;
10957;SDS011;5531;42.570;23.676;2023-06-14T07:44:32;10.85;;;9.65;;
10957;SDS011;5531;42.570;23.676;2023-06-14T07:47:01;11.05;;;10.00;;
10957;SDS011;5531;42.570;23.676;2023-06-14T07:49:30;11.43;;;10.18;;
10957;SDS011;5531;42.570;23.676;2023-06-14T07:51:59;10.65;;;9.63;;
10957;SDS011;5531;42.570;23.676;2023-06-14T07:54:31;11.60;;;9.63;;
10957;SDS011;5531;42.570;23.676;2023-06-14T07:57:00;10.10;;;9.10;;
10957;SDS011;5531;42.570;23.676;2023-06-14T07:59:29;9.73;;;8.73;;
10957;SDS011;5531;42.570;23.676;2023-06-14T08:01:58;10.57;;;9.52;;
10957;SDS011;5531;42.570;23.676;2023-06-14T08:04:27;10.95;;;9.00;;
10957;SDS011;5531;42.570;23.676;2023-06-14T08:06:56;8.98;;;8.15;;
10957;SDS011;5531;42.570;23.676;2023-06-14T08:09:26;9.85;;;8.40;;
10957;SDS011;5531;42.570;23.676;2023-06-14T08:11:58;9.07;;;8.18;;
10957;SDS011;5531;42.570;23.676;2023-06-14T08:14:28;10.15;;;9.15;;
10957;SDS011;5531;42.570;23.676;2023-06-14T08:16:57;10.25;;;9.35;;
10957;SDS011;5531;42.570;23.676;2023-06-14T08:19:26;8.70;;;7.65;;
10957;SDS011;5531;42.570;23.676;2023-06-14T08:21:55;9.10;;;8.05;;
10957;SDS011;5531;42.570;23.676;2023-06-14T08:24:24;9.20;;;8.30;;
10957;SDS011;5531;42.570;23.676;2023-06-14T08:26:53;8.73;;;8.00;;
10957;SDS011;5531;42.570;23.676;2023-06-14T08:29:25;7.93;;;7.22;;
10957;SDS011;5531;42.570;23.676;2023-06-14T08:31:54;8.25;;;7.45;;
10957;SDS011;5531;42.570;23.676;2023-06-14T08:34:23;6.88;;;6.28;;
10957;SDS011;5531;42.570;23.676;2023-06-14T08:36:52;8.90;;;7.97;;
10957;SDS011;5531;42.570;23.676;2023-06-14T08:39:21;7.82;;;6.97;;
10957;SDS011;5531;42.570;23.676;2023-06-14T08:41:51;7.95;;;7.20;;
10957;SDS011;5531;42.570;23.676;2023-06-14T08:44:21;8.43;;;7.68;;
10957;SDS011;5531;42.570;23.676;2023-06-14T08:46:53;8.45;;;7.75;;
10957;SDS011;5531;42.570;23.676;2023-06-14T08:49:25;8.68;;;7.72;;
10957;SDS011;5531;42.570;23.676;2023-06-14T08:51:56;8.77;;;7.93;;
10957;SDS011;5531;42.570;23.676;2023-06-14T08:54:27;8.85;;;8.00;;
10957;SDS011;5531;42.570;23.676;2023-06-14T08:57:01;8.55;;;7.75;;
10957;SDS011;5531;42.570;23.676;2023-06-14T08:59:33;11.07;;;8.07;;
10957;SDS011;5531;42.570;23.676;2023-06-14T09:02:07;8.52;;;7.60;;
10957;SDS011;5531;42.570;23.676;2023-06-14T09:04:38;8.35;;;7.53;;
10957;SDS011;5531;42.570;23.676;2023-06-14T09:07:07;7.85;;;7.15;;
10957;SDS011;5531;42.570;23.676;2023-06-14T09:09:38;7.10;;;6.50;;
10957;SDS011;5531;42.570;23.676;2023-06-14T09:12:08;8.48;;;7.60;;
10957;SDS011;5531;42.570;23.676;2023-06-14T09:14:39;10.32;;;7.18;;
10957;SDS011;5531;42.570;23.676;2023-06-14T09:17:12;7.43;;;6.80;;
10957;SDS011;5531;42.570;23.676;2023-06-14T09:19:42;7.55;;;6.85;;
10957;SDS011;5531;42.570;23.676;2023-06-14T09:22:11;6.75;;;6.15;;
10957;SDS011;5531;42.570;23.676;2023-06-14T09:24:41;7.47;;;6.50;;
10957;SDS011;5531;42.570;23.676;2023-06-14T09:27:14;7.50;;;6.72;;
10957;SDS011;5531;42.570;23.676;2023-06-14T09:29:44;7.88;;;7.15;;
10957;SDS011;5531;42.570;23.676;2023-06-14T09:32:15;7.75;;;7.05;;
10957;SDS011;5531;42.570;23.676;2023-06-14T09:34:45;8.27;;;7.40;;
10957;SDS011;5531;42.570;23.676;2023-06-14T09:37:17;7.20;;;6.60;;
10957;SDS011;5531;42.570;23.676;2023-06-14T09:39:56;7.70;;;6.93;;
10957;SDS011;5531;42.570;23.676;2023-06-14T09:42:25;8.07;;;7.07;;
10957;SDS011;5531;42.570;23.676;2023-06-14T09:44:55;7.38;;;6.75;;
10957;SDS011;5531;42.570;23.676;2023-06-14T09:47:28;7.70;;;6.95;;
10957;SDS011;5531;42.570;23.676;2023-06-14T09:49:57;7.25;;;6.55;;
10957;SDS011;5531;42.570;23.676;2023-06-14T09:52:26;9.27;;;7.55;;
10957;SDS011;5531;42.570;23.676;2023-06-14T09:54:56;7.57;;;6.55;;
10957;SDS011;5531;42.570;23.676;2023-06-14T09:57:28;6.82;;;6.22;;
10957;SDS011;5531;42.570;23.676;2023-06-14T10:00:00;7.47;;;6.78;;
10957;SDS011;5531;42.570;23.676;2023-06-14T10:02:39;6.50;;;5.90;;
10957;SDS011;5531;42.570;23.676;2023-06-14T10:05:13;8.32;;;7.45;;
10957;SDS011;5531;42.570;23.676;2023-06-14T10:07:48;8.18;;;7.38;;
10957;SDS011;5531;42.570;23.676;2023-06-14T10:10:21;7.47;;;6.75;;
10957;SDS011;5531;42.570;23.676;2023-06-14T10:12:50;7.25;;;6.55;;
10957;SDS011;5531;42.570;23.676;2023-06-14T10:15:20;7.50;;;6.90;;
10957;SDS011;5531;42.570;23.676;2023-06-14T10:18:01;7.10;;;6.50;;
10957;SDS011;5531;42.570;23.676;2023-06-14T10:20:41;7.72;;;7.00;;
10957;SDS011;5531;42.570;23.676;2023-06-14T10:23:19;9.60;;;7.15;;
10957;SDS011;5531;42.570;23.676;2023-06-14T10:25:51;8.05;;;7.25;;
10957;SDS011;5531;42.570;23.676;2023-06-14T10:28:25;8.30;;;7.60;;
10957;SDS011;5531;42.570;23.676;2023-06-14T10:31:04;7.63;;;7.03;;
10957;SDS011;5531;42.570;23.676;2023-06-14T10:33:39;8.07;;;7.32;;
10957;SDS011;5531;42.570;23.676;2023-06-14T10:36:26;8.10;;;7.28;;
10957;SDS011;5531;42.570;23.676;2023-06-14T10:38:58;6.85;;;6.25;;
10957;SDS011;5531;42.570;23.676;2023-06-14T10:41:29;7.40;;;6.72;;
10957;SDS011;5531;42.570;23.676;2023-06-14T10:47:08;7.20;;;6.60;;
10957;SDS011;5531;42.570;23.676;2023-06-14T10:49:42;8.25;;;6.13;;
10957;SDS011;5531;42.570;23.676;2023-06-14T10:52:12;6.82;;;6.22;;
10957;SDS011;5531;42.570;23.676;2023-06-14T10:55:02;7.82;;;7.00;;
10957;SDS011;5531;42.570;23.676;2023-06-14T10:57:41;8.82;;;6.82;;
10957;SDS011;5531;42.570;23.676;2023-06-14T11:00:11;7.55;;;6.85;;
10957;SDS011;5531;42.570;23.676;2023-06-14T11:06:00;6.50;;;5.90;;
10957;SDS011;5531;42.570;23.676;2023-06-14T11:08:46;6.22;;;5.72;;
10957;SDS011;5531;42.570;23.676;2023-06-14T11:11:33;6.82;;;6.07;;
10957;SDS011;5531;42.570;23.676;2023-06-14T11:14:04;7.15;;;6.40;;
10957;SDS011;5531;42.570;23.676;2023-06-14T11:16:33;7.80;;;6.72;;
10957;SDS011;5531;42.570;23.676;2023-06-14T11:19:02;7.53;;;6.82;;
10957;SDS011;5531;42.570;23.676;2023-06-14T11:21:34;8.48;;;7.68;;
10957;SDS011;5531;42.570;23.676;2023-06-14T11:24:09;7.63;;;6.38;;
10957;SDS011;5531;42.570;23.676;2023-06-14T11:26:39;7.50;;;6.80;;
10957;SDS011;5531;42.570;23.676;2023-06-14T11:29:08;7.82;;;7.13;;
10957;SDS011;5531;42.570;23.676;2023-06-14T11:31:38;7.85;;;6.97;;
10957;SDS011;5531;42.570;23.676;2023-06-14T11:34:12;8.10;;;7.40;;
10957;SDS011;5531;42.570;23.676;2023-06-14T11:36:44;8.07;;;7.28;;
10957;SDS011;5531;42.570;23.676;2023-06-14T11:39:14;8.30;;;7.60;;
10957;SDS011;5531;42.570;23.676;2023-06-14T11:41:43;8.40;;;7.70;;
10957;SDS011;5531;42.570;23.676;2023-06-14T11:44:13;8.80;;;8.00;;
10957;SDS011;5531;42.570;23.676;2023-06-14T11:46:42;8.60;;;7.47;;
10957;SDS011;5531;42.570;23.676;2023-06-14T11:49:12;9.30;;;8.50;;
10957;SDS011;5531;42.570;23.676;2023-06-14T11:51:44;9.65;;;8.65;;
10957;SDS011;5531;42.570;23.676;2023-06-14T11:54:14;9.15;;;8.35;;
10957;SDS011;5531;42.570;23.676;2023-06-14T11:56:43;9.30;;;8.40;;
10957;SDS011;5531;42.570;23.676;2023-06-14T11:59:13;9.93;;;8.23;;
10957;SDS011;5531;42.570;23.676;2023-06-14T12:01:43;9.32;;;8.38;;
10957;SDS011;5531;42.570;23.676;2023-06-14T12:04:12;9.18;;;8.23;;
10957;SDS011;5531;42.570;23.676;2023-06-14T12:06:44;10.13;;;9.15;;
10957;SDS011;5531;42.570;23.676;2023-06-14T12:09:14;10.80;;;8.88;;
10957;SDS011;5531;42.570;23.676;2023-06-14T12:11:43;10.13;;;8.75;;
10957;SDS011;5531;42.570;23.676;2023-06-14T12:14:12;10.07;;;9.18;;
10957;SDS011;5531;42.570;23.676;2023-06-14T12:16:42;11.77;;;8.32;;
10957;SDS011;5531;42.570;23.676;2023-06-14T12:19:12;8.93;;;8.18;;
10957;SDS011;5531;42.570;23.676;2023-06-14T12:21:45;8.07;;;7.38;;
10957;SDS011;5531;42.570;23.676;2023-06-14T12:24:16;8.38;;;7.70;;
10957;SDS011;5531;42.570;23.676;2023-06-14T12:26:45;8.88;;;7.97;;
10957;SDS011;5531;42.570;23.676;2023-06-14T12:29:14;8.40;;;7.63;;
10957;SDS011;5531;42.570;23.676;2023-06-14T12:31:44;7.95;;;7.07;;
10957;SDS011;5531;42.570;23.676;2023-06-14T12:34:13;8.80;;;7.90;;
10957;SDS011;5531;42.570;23.676;2023-06-14T12:36:45;8.15;;;7.55;;
10957;SDS011;5531;42.570;23.676;2023-06-14T12:39:14;8.13;;;7.43;;
10957;SDS011;5531;42.570;23.676;2023-06-14T12:41:43;8.10;;;7.30;;
10957;SDS011;5531;42.570;23.676;2023-06-14T12:44:12;8.85;;;7.57;;
10957;SDS011;5531;42.570;23.676;2023-06-14T12:46:42;7.40;;;6.70;;
10957;SDS011;5531;42.570;23.676;2023-06-14T12:49:11;8.02;;;7.03;;
10957;SDS011;5531;42.570;23.676;2023-06-14T12:51:40;7.57;;;6.88;;
10957;SDS011;5531;42.570;23.676;2023-06-14T12:54:12;8.98;;;7.05;;
10957;SDS011;5531;42.570;23.676;2023-06-14T12:56:41;7.60;;;6.72;;
10957;SDS011;5531;42.570;23.676;2023-06-14T12:59:11;7.65;;;6.80;;
10957;SDS011;5531;42.570;23.676;2023-06-14T13:01:40;6.90;;;6.30;;
10957;SDS011;5531;42.570;23.676;2023-06-14T13:04:09;6.55;;;6.05;;
10957;SDS011;5531;42.570;23.676;2023-06-14T13:06:39;6.68;;;6.13;;
10957;SDS011;5531;42.570;23.676;2023-06-14T13:09:08;7.05;;;6.32;;
10957;SDS011;5531;42.570;23.676;2023-06-14T13:11:40;6.95;;;6.35;;
10957;SDS011;5531;42.570;23.676;2023-06-14T13:14:11;7.13;;;6.43;;
10957;SDS011;5531;42.570;23.676;2023-06-14T13:16:40;6.63;;;6.03;;
10957;SDS011;5531;42.570;23.676;2023-06-14T13:19:09;8.30;;;6.55;;
10957;SDS011;5531;42.570;23.676;2023-06-14T13:21:38;7.68;;;6.70;;
10957;SDS011;5531;42.570;23.676;2023-06-14T13:24:07;7.13;;;6.43;;
10957;SDS011;5531;42.570;23.676;2023-06-14T13:26:36;6.60;;;6.10;;
10957;SDS011;5531;42.570;23.676;2023-06-14T13:29:08;7.20;;;6.53;;
10957;SDS011;5531;42.570;23.676;2023-06-14T13:31:37;7.47;;;6.78;;
10957;SDS011;5531;42.570;23.676;2023-06-14T13:34:06;7.78;;;7.18;;
10957;SDS011;5531;42.570;23.676;2023-06-14T13:36:35;7.65;;;7.05;;
10957;SDS011;5531;42.570;23.676;2023-06-14T13:39:04;7.85;;;7.05;;
10957;SDS011;5531;42.570;23.676;2023-06-14T13:41:36;7.70;;;7.00;;
10957;SDS011;5531;42.570;23.676;2023-06-14T13:44:08;8.05;;;7.35;;
10957;SDS011;5531;42.570;23.676;2023-06-14T13:46:39;8.02;;;7.32;;
10957;SDS011;5531;42.570;23.676;2023-06-14T13:49:08;9.55;;;7.45;;
10957;SDS011;5531;42.570;23.676;2023-06-14T13:51:38;8.70;;;8.00;;
10957;SDS011;5531;42.570;23.676;2023-06-14T13:54:07;9.02;;;8.10;;
10957;SDS011;5531;42.570;23.676;2023-06-14T13:56:36;9.65;;;8.38;;
10957;SDS011;5531;42.570;23.676;2023-06-14T13:59:08;10.30;;;8.57;;
10957;SDS011;5531;42.570;23.676;2023-06-14T14:01:37;8.98;;;8.13;;
10957;SDS011;5531;42.570;23.676;2023-06-14T14:04:07;10.18;;;8.25;;
10957;SDS011;5531;42.570;23.676;2023-06-14T14:06:36;9.20;;;8.50;;
10957;SDS011;5531;42.570;23.676;2023-06-14T14:09:05;9.45;;;8.65;;
10957;SDS011;5531;42.570;23.676;2023-06-14T14:11:36;9.65;;;8.75;;
10957;SDS011;5531;42.570;23.676;2023-06-14T14:14:09;9.90;;;9.10;;
10957;SDS011;5531;42.570;23.676;2023-06-14T14:16:38;9.40;;;8.50;;
10957;SDS011;5531;42.570;23.676;2023-06-14T14:19:07;9.48;;;8.50;;
10957;SDS011;5531;42.570;23.676;2023-06-14T14:21:36;9.73;;;8.93;;
10957;SDS011;5531;42.570;23.676;2023-06-14T14:24:05;10.45;;;9.45;;
10957;SDS011;5531;42.570;23.676;2023-06-14T14:26:34;10.52;;;9.45;;
10957;SDS011;5531;42.570;23.676;2023-06-14T14:29:03;12.45;;;10.07;;
10957;SDS011;5531;42.570;23.676;2023-06-14T14:31:35;11.95;;;10.95;;
10957;SDS011;5531;42.570;23.676;2023-06-14T14:34:04;12.63;;;11.27;;
10957;SDS011;5531;42.570;23.676;2023-06-14T14:36:33;11.70;;;10.57;;
10957;SDS011;5531;42.570;23.676;2023-06-14T14:39:03;11.95;;;10.80;;
10957;SDS011;5531;42.570;23.676;2023-06-14T14:41:32;12.82;;;11.63;;
10957;SDS011;5531;42.570;23.676;2023-06-14T14:44:01;11.88;;;10.80;;
10957;SDS011;5531;42.570;23.676;2023-06-14T14:46:30;12.95;;;11.85;;
10957;SDS011;5531;42.570;23.676;2023-06-14T14:49:01;13.45;;;12.10;;
10957;SDS011;5531;42.570;23.676;2023-06-14T14:51:30;13.10;;;12.00;;
10957;SDS011;5531;42.570;23.676;2023-06-14T14:53:59;13.45;;;12.32;;
10957;SDS011;5531;42.570;23.676;2023-06-14T14:56:28;10.35;;;9.45;;
10957;SDS011;5531;42.570;23.676;2023-06-14T14:58:57;10.00;;;9.07;;
10957;SDS011;5531;42.570;23.676;2023-06-14T15:01:26;8.05;;;7.43;;
10957;SDS011;5531;42.570;23.676;2023-06-14T15:03:55;7.50;;;6.80;;
10957;SDS011;5531;42.570;23.676;2023-06-14T15:06:27;8.65;;;7.95;;